Time;durP1;ratioP1;P1;durP2;ratioP2;P2;SDS_P1;SDS_P2;PMS_P1;PMS_P2;Temp;Humidity;BMP_temperature;BMP_pressure;BME280_temperature;BME280_humidity;BME280_pressure;Samples;Min_cycle;Max_cycle;Signal;HPM_P1;HPM_P2
2021/11/19 00:01:17;;;;;;;;;;;11.90;99.90;;;;;;8436582;28;19927;-73
2021/11/19 00:05:19;;;;;;;;;;;12.00;99.90;;;;;;8431033;28;19928;-73
2021/11/19 00:09:22;;;;;;;;;;;12.00;99.90;;;;;;8430182;28;19919;-74
2021/11/19 00:13:25;;;;;;;;;;;12.00;99.90;;;;;;8449803;27;19920;-73
2021/11/19 00:17:28;;;;;;;;;;;12.00;99.90;;;;;;8426019;28;20318;-73
2021/11/19 00:21:30;;;;;;;;;;;12.00;99.90;;;;;;8428231;28;19920;-73
2021/11/19 00:25:32;;;;;;;;;;;12.00;99.90;;;;;;8430101;28;20398;-73
2021/11/19 00:29:34;;;;;;;;;;;12.00;99.90;;;;;;8429682;28;19927;-73
2021/11/19 00:33:36;;;;;;;;;;;12.00;99.90;;;;;;8427186;28;19920;-73
2021/11/19 00:37:39;;;;;;;;;;;12.00;99.90;;;;;;8430997;28;19924;-73
2021/11/19 00:41:41;;;;;;;;;;;12.00;99.90;;;;;;8427416;28;19920;-73
2021/11/19 00:45:43;;;;;;;;;;;12.00;99.90;;;;;;8429293;28;19956;-73
2021/11/19 00:49:45;;;;;;;;;;;11.90;99.90;;;;;;8431540;28;19927;-73
2021/11/19 00:53:48;;;;;;;;;;;12.00;99.90;;;;;;8427087;28;19942;-73
2021/11/19 00:57:50;;;;;;;;;;;12.00;99.90;;;;;;8432239;28;19924;-73
2021/11/19 01:01:54;;;;;;;;;;;11.90;99.90;;;;;;8428735;28;19981;-73
2021/11/19 01:05:56;;;;;;;;;;;11.90;99.90;;;;;;8428931;28;20585;-73
2021/11/19 01:10:00;;;;;;;;;;;11.90;99.90;;;;;;8429803;28;19923;-73
2021/11/19 01:14:04;;;;;;;;;;;11.90;99.90;;;;;;8430170;28;19928;-73
2021/11/19 01:18:08;;;;;;;;;;;11.90;99.90;;;;;;8453965;27;19927;-73
2021/11/19 01:22:15;;;;;;;;;;;11.90;99.90;;;;;;8434698;28;19920;-73
2021/11/19 01:26:20;;;;;;;;;;;11.90;99.90;;;;;;8427404;28;19947;-73
2021/11/19 01:30:27;;;;;;;;;;;11.90;99.90;;;;;;8435683;28;19932;-73
2021/11/19 01:34:30;;;;;;;;;;;11.90;99.90;;;;;;8427865;28;19924;-74
2021/11/19 01:38:32;;;;;;;;;;;11.90;99.90;;;;;;8430274;28;19920;-73
2021/11/19 01:42:35;;;;;;;;;;;11.90;99.90;;;;;;8437774;28;20051;-73
2021/11/19 01:46:40;;;;;;;;;;;11.90;99.90;;;;;;8433670;28;19920;-73
2021/11/19 01:50:52;;;;;;;;;;;11.90;99.90;;;;;;8435832;28;19930;-73
2021/11/19 01:54:55;;;;;;;;;;;11.90;99.90;;;;;;8425076;28;19920;-73
2021/11/19 01:59:01;;;;;;;;;;;11.90;99.90;;;;;;8438551;27;19924;-73
2021/11/19 02:03:04;;;;;;;;;;;11.90;99.90;;;;;;8430370;28;20279;-73
2021/11/19 02:07:12;;;;;;;;;;;11.90;99.90;;;;;;8424299;28;19920;-73
2021/11/19 02:11:32;;;;;;;;;;;11.90;99.90;;;;;;8427091;28;19943;-73
2021/11/19 02:15:39;;;;;;;;;;;11.90;99.90;;;;;;8426201;28;19988;-73
2021/11/19 02:19:42;;;;;;;;;;;11.90;99.90;;;;;;8427981;28;19927;-73
2021/11/19 02:23:50;;;;;;;;;;;11.90;99.90;;;;;;8426123;28;19927;-73
2021/11/19 02:27:57;;;;;;;;;;;11.90;99.90;;;;;;8429952;28;20389;-73
2021/11/19 02:32:00;;;;;;;;;;;12.00;99.90;;;;;;8430144;28;19920;-72
2021/11/19 02:36:09;;;;;;;;;;;11.90;99.90;;;;;;8425591;28;20621;-73
2021/11/19 02:40:18;;;;;;;;;;;11.90;99.90;;;;;;8426426;28;19920;-74
2021/11/19 02:44:23;;;;;;;;;;;12.00;99.90;;;;;;8424931;28;19927;-73
2021/11/19 02:48:27;;;;;;;;;;;12.00;99.90;;;;;;8422838;28;19920;-73
2021/11/19 02:52:37;;;;;;;;;;;12.00;99.90;;;;;;8427333;28;19927;-73
2021/11/19 02:56:39;;;;;;;;;;;12.00;99.90;;;;;;8423340;28;20322;-73
2021/11/19 03:00:43;;;;;;;;;;;12.00;99.90;;;;;;8430105;28;19927;-73
2021/11/19 03:04:53;;;;;;;;;;;11.90;99.90;;;;;;8452399;27;20315;-73
2021/11/19 03:08:55;;;;;;;;;;;11.90;99.90;;;;;;8427010;28;20579;-73
2021/11/19 03:12:58;;;;;;;;;;;11.90;99.90;;;;;;8429817;28;19963;-73
2021/11/19 03:17:00;;;;;;;;;;;11.90;99.90;;;;;;8433382;28;19928;-73
2021/11/19 03:21:04;;;;;;;;;;;11.90;99.90;;;;;;8434141;28;19932;-73
2021/11/19 03:25:07;;;;;;;;;;;11.90;99.90;;;;;;8436789;28;20260;-73
2021/11/19 03:29:10;;;;;;;;;;;11.90;99.90;;;;;;8435298;28;19931;-73
2021/11/19 03:33:13;;;;;;;;;;;11.90;99.90;;;;;;8430009;28;19920;-73
2021/11/19 03:37:15;;;;;;;;;;;11.90;99.90;;;;;;8430672;28;19931;-73
2021/11/19 03:41:18;;;;;;;;;;;11.90;99.90;;;;;;8426674;28;19931;-73
2021/11/19 03:45:22;;;;;;;;;;;11.90;99.90;;;;;;8426036;28;20337;-73
2021/11/19 03:49:24;;;;;;;;;;;11.90;99.90;;;;;;8435442;28;19920;-73
2021/11/19 03:53:26;;;;;;;;;;;11.90;99.90;;;;;;8428367;28;19927;-73
2021/11/19 03:57:28;;;;;;;;;;;11.90;99.90;;;;;;8429171;28;19920;-73
2021/11/19 04:01:32;;;;;;;;;;;11.90;99.90;;;;;;8429154;28;19924;-73
2021/11/19 04:05:36;;;;;;;;;;;11.90;99.90;;;;;;8430099;28;19927;-73
2021/11/19 04:09:38;;;;;;;;;;;12.00;99.90;;;;;;8431487;28;19920;-73
2021/11/19 04:13:40;;;;;;;;;;;12.00;99.90;;;;;;8456983;27;20398;-73
2021/11/19 04:17:42;;;;;;;;;;;12.00;99.90;;;;;;8430044;28;20603;-74
2021/11/19 04:21:44;;;;;;;;;;;12.00;99.90;;;;;;8434274;28;19973;-73
2021/11/19 04:25:46;;;;;;;;;;;12.00;99.90;;;;;;8433692;28;19920;-73
2021/11/19 04:29:48;;;;;;;;;;;12.00;99.90;;;;;;8434041;28;19920;-73
2021/11/19 04:33:50;;;;;;;;;;;12.00;99.90;;;;;;8430990;28;19926;-73
2021/11/19 04:37:51;;;;;;;;;;;12.00;99.90;;;;;;8433850;28;19924;-73
2021/11/19 04:41:54;;;;;;;;;;;12.00;99.90;;;;;;8428137;28;19977;-73
2021/11/19 04:45:56;;;;;;;;;;;12.00;99.90;;;;;;8428868;28;19924;-73
2021/11/19 04:49:58;;;;;;;;;;;12.00;99.90;;;;;;8428633;28;20337;-73
2021/11/19 04:54:00;;;;;;;;;;;12.00;99.90;;;;;;8431443;28;19924;-73
2021/11/19 04:58:02;;;;;;;;;;;12.00;99.90;;;;;;8427439;28;19958;-73
2021/11/19 05:02:07;;;;;;;;;;;12.00;99.90;;;;;;8431656;28;19927;-73
2021/11/19 05:06:09;;;;;;;;;;;12.00;99.90;;;;;;8430438;28;19920;-73
2021/11/19 05:10:11;;;;;;;;;;;12.00;99.90;;;;;;8431388;28;19927;-74
2021/11/19 05:14:14;;;;;;;;;;;12.00;99.90;;;;;;8431860;28;19943;-73
2021/11/19 05:18:16;;;;;;;;;;;12.00;99.90;;;;;;8423765;28;19920;-73
2021/11/19 05:22:18;;;;;;;;;;;12.10;99.90;;;;;;8426685;28;20405;-73
2021/11/19 05:26:20;;;;;;;;;;;12.10;99.90;;;;;;8428023;28;19928;-73
2021/11/19 05:30:21;;;;;;;;;;;12.10;99.90;;;;;;8432815;28;19981;-73
2021/11/19 05:34:24;;;;;;;;;;;12.10;99.90;;;;;;8420675;28;19950;-73
2021/11/19 05:38:26;;;;;;;;;;;12.10;99.90;;;;;;8428568;28;19920;-73
2021/11/19 05:42:28;;;;;;;;;;;12.10;99.90;;;;;;8430487;28;20337;-73
2021/11/19 05:46:31;;;;;;;;;;;12.10;99.90;;;;;;8446237;27;19969;-74
2021/11/19 05:50:33;;;;;;;;;;;12.10;99.90;;;;;;8432017;28;19977;-73
2021/11/19 05:54:36;;;;;;;;;;;12.10;99.90;;;;;;8414750;28;19962;-73
2021/11/19 05:58:37;;;;;;;;;;;12.10;99.90;;;;;;8423908;28;19965;-73
2021/11/19 06:02:39;;;;;;;;;;;12.10;99.90;;;;;;8416575;28;19924;-73
2021/11/19 06:06:42;;;;;;;;;;;12.10;99.90;;;;;;8425913;28;20197;-73
2021/11/19 06:10:50;;;;;;;;;;;12.10;99.90;;;;;;8416906;28;19927;-73
2021/11/19 06:14:54;;;;;;;;;;;12.10;99.90;;;;;;8420775;28;19920;-73
2021/11/19 06:18:59;;;;;;;;;;;12.10;99.90;;;;;;8422198;28;19927;-73
2021/11/19 06:23:14;;;;;;;;;;;12.10;99.90;;;;;;8422688;28;20304;-73
2021/11/19 06:27:22;;;;;;;;;;;12.10;99.90;;;;;;8424749;28;19921;-73
2021/11/19 06:31:23;;;;;;;;;;;12.10;99.90;;;;;;8422067;28;19957;-73
2021/11/19 06:35:25;;;;;;;;;;;12.10;99.90;;;;;;8435473;28;19956;-73
2021/11/19 06:39:27;;;;;;;;;;;12.10;99.90;;;;;;8414251;28;19982;-73
2021/11/19 06:43:29;;;;;;;;;;;12.10;99.90;;;;;;8415961;28;20260;-73
2021/11/19 06:47:30;;;;;;;;;;;12.10;99.90;;;;;;8417877;28;19920;-74
2021/11/19 06:51:32;;;;;;;;;;;12.10;99.90;;;;;;8428257;28;19927;-73
2021/11/19 06:55:34;;;;;;;;;;;12.10;99.90;;;;;;8420829;28;19930;-73
2021/11/19 06:59:37;;;;;;;;;;;12.10;99.90;;;;;;8416446;28;19924;-73
2021/11/19 07:03:38;;;;;;;;;;;12.10;99.90;;;;;;8426406;28;20256;-74
2021/11/19 07:07:40;;;;;;;;;;;12.10;99.90;;;;;;8436554;28;20328;-73
2021/11/19 07:11:42;;;;;;;;;;;12.10;99.90;;;;;;8422428;28;19974;-74
2021/11/19 07:15:44;;;;;;;;;;;12.10;99.90;;;;;;8423280;28;19924;-73
2021/11/19 07:19:46;;;;;;;;;;;12.20;99.90;;;;;;8426287;28;19959;-73
2021/11/19 07:23:48;;;;;;;;;;;12.20;99.90;;;;;;8427734;28;19928;-73
2021/11/19 07:27:54;;;;;;;;;;;12.10;99.90;;;;;;8415722;28;19924;-73
2021/11/19 07:31:56;;;;;;;;;;;12.20;99.90;;;;;;8417779;28;19920;-73
2021/11/19 07:35:59;;;;;;;;;;;12.20;99.90;;;;;;8425050;28;19926;-73
2021/11/19 07:40:01;;;;;;;;;;;12.20;99.90;;;;;;8419586;28;19923;-73
2021/11/19 07:44:03;;;;;;;;;;;12.20;99.90;;;;;;8405552;28;19936;-73
2021/11/19 07:48:11;;;;;;;;;;;12.20;99.90;;;;;;8427552;28;20408;-73
2021/11/19 07:52:13;;;;;;;;;;;12.20;99.90;;;;;;8424872;28;19920;-73
2021/11/19 07:56:16;;;;;;;;;;;12.20;99.90;;;;;;8413594;28;19928;-73
2021/11/19 08:00:29;;;;;;;;;;;12.20;99.90;;;;;;8423711;28;19919;-73
2021/11/19 08:04:32;;;;;;;;;;;12.20;99.90;;;;;;8420109;28;19931;-73
2021/11/19 08:08:35;;;;;;;;;;;12.30;99.90;;;;;;8426846;28;19920;-73
2021/11/19 08:12:37;;;;;;;;;;;12.30;99.90;;;;;;8428721;28;19920;-73
2021/11/19 08:16:47;;;;;;;;;;;12.30;99.90;;;;;;8434720;28;19928;-73
2021/11/19 08:20:54;;;;;;;;;;;12.30;99.90;;;;;;8429435;28;19964;-73
2021/11/19 08:25:01;;;;;;;;;;;12.30;99.90;;;;;;8427765;28;20294;-73
2021/11/19 08:29:04;;;;;;;;;;;12.40;99.90;;;;;;8423120;28;20341;-73
2021/11/19 08:33:06;;;;;;;;;;;12.40;99.90;;;;;;8430647;28;19924;-73
2021/11/19 08:37:08;;;;;;;;;;;12.40;99.90;;;;;;8427550;28;19919;-73
2021/11/19 08:41:11;;;;;;;;;;;12.40;99.90;;;;;;8427380;28;19924;-73
2021/11/19 08:45:14;;;;;;;;;;;12.40;99.90;;;;;;8426971;28;19927;-73
2021/11/19 08:49:24;;;;;;;;;;;12.50;99.90;;;;;;8428699;28;20035;-72
2021/11/19 08:53:25;;;;;;;;;;;12.50;99.90;;;;;;8422944;28;19951;-72
2021/11/19 08:57:27;;;;;;;;;;;12.50;99.90;;;;;;8423556;28;19940;-73
2021/11/19 09:01:29;;;;;;;;;;;12.50;99.90;;;;;;8430550;28;19920;-73
2021/11/19 09:05:31;;;;;;;;;;;12.60;99.90;;;;;;8430541;28;19928;-73
2021/11/19 09:09:33;;;;;;;;;;;12.60;99.90;;;;;;8428352;28;19931;-72
2021/11/19 09:13:35;;;;;;;;;;;12.70;99.90;;;;;;8434881;27;19927;-73
2021/11/19 09:17:42;;;;;;;;;;;12.70;99.90;;;;;;8421973;28;19927;-73
2021/11/19 09:21:47;;;;;;;;;;;12.80;99.90;;;;;;8453237;27;19920;-73
2021/11/19 09:25:50;;;;;;;;;;;12.80;99.90;;;;;;8430811;28;20423;-73
2021/11/19 09:29:54;;;;;;;;;;;12.90;99.90;;;;;;8428687;28;19936;-73
2021/11/19 09:33:56;;;;;;;;;;;12.90;99.90;;;;;;8440675;27;19923;-73
2021/11/19 09:37:58;;;;;;;;;;;12.90;99.90;;;;;;8424212;28;19939;-72
2021/11/19 09:42:03;;;;;;;;;;;13.00;99.90;;;;;;8427019;28;19919;-73
2021/11/19 09:46:23;;;;;;;;;;;13.00;99.90;;;;;;8428678;27;19988;-73
2021/11/19 09:50:43;;;;;;;;;;;13.10;99.90;;;;;;8445025;27;19920;-73
2021/11/19 09:55:06;;;;;;;;;;;13.10;99.90;;;;;;8425204;28;20379;-73
2021/11/19 09:59:17;;;;;;;;;;;13.20;99.90;;;;;;8427203;28;19931;-73
2021/11/19 10:03:30;;;;;;;;;;;13.20;99.90;;;;;;8427513;28;19934;-73
2021/11/19 10:07:42;;;;;;;;;;;13.30;99.90;;;;;;8423836;28;19992;-73
2021/11/19 10:11:56;;;;;;;;;;;13.40;99.90;;;;;;8425008;28;19920;-73
2021/11/19 10:16:10;;;;;;;;;;;13.50;99.90;;;;;;8435720;28;19924;-73
2021/11/19 10:20:14;;;;;;;;;;;13.50;99.90;;;;;;8431432;28;20278;-73
2021/11/19 10:24:24;;;;;;;;;;;13.60;99.90;;;;;;8420142;28;19924;-73
2021/11/19 10:28:38;;;;;;;;;;;13.70;99.90;;;;;;8423693;28;19920;-73
2021/11/19 10:32:40;;;;;;;;;;;13.80;99.90;;;;;;8422677;28;19921;-74
2021/11/19 10:37:08;;;;;;;;;;;14.00;99.90;;;;;;8416565;28;19924;-73
2021/11/19 10:41:23;;;;;;;;;;;14.10;99.90;;;;;;8420644;28;19921;-73
2021/11/19 10:45:54;;;;;;;;;;;14.00;99.90;;;;;;8423245;28;19924;-73
2021/11/19 10:49:59;;;;;;;;;;;13.80;99.90;;;;;;8402934;28;19924;-73
2021/11/19 10:54:19;;;;;;;;;;;13.70;99.90;;;;;;8421782;28;19928;-73
2021/11/19 10:58:27;;;;;;;;;;;13.60;99.90;;;;;;8418846;28;19924;-73
2021/11/19 11:02:34;;;;;;;;;;;13.60;99.90;;;;;;8426570;28;19924;-73
2021/11/19 11:06:37;;;;;;;;;;;13.60;99.90;;;;;;8420754;28;19950;-73
2021/11/19 11:10:44;;;;;;;;;;;13.60;99.90;;;;;;8417011;28;19952;-74
2021/11/19 11:14:47;;;;;;;;;;;13.70;99.90;;;;;;8426704;28;20019;-73
2021/11/19 11:18:58;;;;;;;;;;;13.80;99.90;;;;;;8416075;28;19973;-73
2021/11/19 11:23:15;;;;;;;;;;;14.00;99.90;;;;;;8460792;27;19920;-73
2021/11/19 11:27:35;;;;;;;;;;;14.30;99.90;;;;;;8428827;28;20292;-73
2021/11/19 11:31:37;;;;;;;;;;;14.70;99.90;;;;;;8430161;28;19999;-73
2021/11/19 11:35:45;;;;;;;;;;;14.80;99.90;;;;;;8416251;28;19965;-73
2021/11/19 11:39:51;;;;;;;;;;;14.70;99.90;;;;;;8425647;28;19928;-73
2021/11/19 11:44:08;;;;;;;;;;;14.60;99.90;;;;;;8431628;28;19938;-73
2021/11/19 11:48:29;;;;;;;;;;;14.40;99.90;;;;;;8428731;28;19961;-74
2021/11/19 11:52:51;;;;;;;;;;;14.30;99.90;;;;;;8422493;28;20634;-73
2021/11/19 11:57:31;;;;;;;;;;;14.20;99.90;;;;;;8424654;28;20339;-73
2021/11/19 12:01:38;;;;;;;;;;;14.20;99.90;;;;;;8355038;28;19927;-74
2021/11/19 12:05:43;;;;;;;;;;;14.20;99.90;;;;;;8398749;28;19980;-73
2021/11/19 12:09:47;;;;;;;;;;;14.20;99.90;;;;;;8443979;27;20420;-73
2021/11/19 12:13:51;;;;;;;;;;;14.20;99.90;;;;;;8429437;28;19949;-73
2021/11/19 12:17:59;;;;;;;;;;;14.10;99.90;;;;;;8426750;28;19920;-73
2021/11/19 12:22:07;;;;;;;;;;;14.10;99.90;;;;;;8421750;28;19920;-73
2021/11/19 12:26:27;;;;;;;;;;;14.10;99.90;;;;;;8421233;28;19927;-73
2021/11/19 12:30:35;;;;;;;;;;;14.10;99.90;;;;;;8412416;28;19973;-73
2021/11/19 12:34:44;;;;;;;;;;;14.20;99.90;;;;;;8416537;28;19924;-73
2021/11/19 12:38:48;;;;;;;;;;;14.20;99.90;;;;;;8416403;28;20453;-74
2021/11/19 12:42:54;;;;;;;;;;;14.30;99.90;;;;;;8422974;28;20383;-73
2021/11/19 12:46:59;;;;;;;;;;;14.30;99.90;;;;;;8419743;28;19920;-73
2021/11/19 12:51:01;;;;;;;;;;;14.40;99.90;;;;;;8420944;28;19931;-72
2021/11/19 12:55:19;;;;;;;;;;;14.40;99.90;;;;;;8406113;28;19928;-73
2021/11/19 12:59:22;;;;;;;;;;;14.40;99.90;;;;;;8405762;28;19919;-73
2021/11/19 13:03:33;;;;;;;;;;;14.50;99.90;;;;;;8413983;28;19973;-73
2021/11/19 13:07:45;;;;;;;;;;;14.50;99.90;;;;;;8416388;27;19928;-73
2021/11/19 13:12:05;;;;;;;;;;;14.50;99.90;;;;;;8423330;27;19932;-72
2021/11/19 13:16:22;;;;;;;;;;;14.50;99.90;;;;;;8406788;28;19928;-73
2021/11/19 13:20:27;;;;;;;;;;;14.50;99.90;;;;;;8400687;28;19928;-73
2021/11/19 13:24:28;;;;;;;;;;;14.50;99.90;;;;;;8416874;27;19921;-73
2021/11/19 13:28:46;;;;;;;;;;;14.40;99.90;;;;;;8425847;27;19924;-73
2021/11/19 13:33:04;;;;;;;;;;;14.40;99.90;;;;;;8398070;28;19928;-72
2021/11/19 13:37:18;;;;;;;;;;;14.30;99.90;;;;;;8402595;28;20567;-73
2021/11/19 13:41:27;;;;;;;;;;;14.30;99.90;;;;;;8405518;28;19925;-72
2021/11/19 13:45:38;;;;;;;;;;;14.30;99.90;;;;;;8401059;28;19924;-73
2021/11/19 13:49:45;;;;;;;;;;;14.30;99.90;;;;;;8402283;28;20331;-72
2021/11/19 13:53:55;;;;;;;;;;;14.30;99.90;;;;;;8401338;28;20666;-73
2021/11/19 13:58:03;;;;;;;;;;;14.30;99.90;;;;;;8406300;28;19928;-73
2021/11/19 14:02:07;;;;;;;;;;;14.30;99.90;;;;;;8406783;28;20369;-73
2021/11/19 14:06:13;;;;;;;;;;;14.30;99.90;;;;;;8401242;28;20596;-73
2021/11/19 14:10:30;;;;;;;;;;;14.30;99.90;;;;;;8407081;28;19920;-73
2021/11/19 14:14:34;;;;;;;;;;;14.30;99.90;;;;;;8399913;28;19977;-73
2021/11/19 14:18:57;;;;;;;;;;;14.30;99.90;;;;;;8408852;28;20054;-73
2021/11/19 14:23:06;;;;;;;;;;;14.20;99.90;;;;;;8414937;28;19928;-73
2021/11/19 14:27:17;;;;;;;;;;;14.30;99.90;;;;;;8401978;28;19927;-73
2021/11/19 14:31:20;;;;;;;;;;;14.20;99.90;;;;;;8397523;28;20382;-73
2021/11/19 14:35:24;;;;;;;;;;;14.20;99.90;;;;;;8395795;28;19927;-73
2021/11/19 14:39:28;;;;;;;;;;;14.20;99.90;;;;;;8398042;28;19929;-73
2021/11/19 14:43:32;;;;;;;;;;;14.10;99.90;;;;;;8394622;28;19928;-73
2021/11/19 14:47:41;;;;;;;;;;;14.10;99.90;;;;;;8397898;28;19926;-73
2021/11/19 14:51:46;;;;;;;;;;;14.10;99.90;;;;;;8400637;28;19920;-73
2021/11/19 14:55:48;;;;;;;;;;;14.10;99.90;;;;;;8391936;28;19924;-73
2021/11/19 14:59:58;;;;;;;;;;;14.00;99.90;;;;;;8395137;28;20066;-72
2021/11/19 15:04:26;;;;;;;;;;;14.00;99.90;;;;;;8395981;28;20648;-73
2021/11/19 15:08:35;;;;;;;;;;;14.00;99.90;;;;;;8391892;28;20376;-73
2021/11/19 15:12:44;;;;;;;;;;;14.00;99.90;;;;;;8407123;28;19928;-73
2021/11/19 15:16:52;;;;;;;;;;;14.00;99.90;;;;;;8393845;28;19971;-73
2021/11/19 15:21:12;;;;;;;;;;;14.00;99.90;;;;;;8394033;28;20245;-73
2021/11/19 15:25:16;;;;;;;;;;;14.10;99.90;;;;;;8395627;28;19935;-72
2021/11/19 15:29:21;;;;;;;;;;;14.10;99.90;;;;;;8399129;28;19934;-73
2021/11/19 15:33:35;;;;;;;;;;;14.10;99.90;;;;;;8395902;28;20390;-73
2021/11/19 15:37:42;;;;;;;;;;;14.00;99.90;;;;;;8394404;28;20083;-73
2021/11/19 15:41:47;;;;;;;5.25;1.52;;;13.90;99.90;;;;;;8397121;28;20234;-73
2021/11/19 15:45:55;;;;;;;;;;;13.70;99.90;;;;;;8404819;28;20040;-72
2021/11/19 15:50:00;;;;;;;3.28;1.33;;;13.60;99.90;;;;;;8395247;28;20326;-73
2021/11/19 15:54:14;;;;;;;4.80;1.85;;;13.50;99.90;;;;;;8394506;28;20102;-73
2021/11/19 15:58:53;;;;;;;3.50;1.30;;;13.40;99.90;;;;;;8407944;28;20046;-73
2021/11/19 16:03:08;;;;;;;;;;;13.30;99.90;;;;;;8393355;28;20090;-73
2021/11/19 16:07:29;;;;;;;;;;;13.20;99.90;;;;;;8396783;28;19931;-73
2021/11/19 16:11:43;;;;;;;;;;;13.10;99.90;;;;;;8406202;28;19921;-73
2021/11/19 16:15:47;;;;;;;;;;;12.90;99.90;;;;;;8408743;28;19919;-73
2021/11/19 16:19:49;;;;;;;;;;;12.80;99.90;;;;;;8407280;28;20383;-73
2021/11/19 16:23:50;;;;;;;;;;;12.70;99.90;;;;;;8394919;28;20508;-73
2021/11/19 16:27:52;;;;;;;;;;;12.60;99.90;;;;;;8401873;28;19947;-73
2021/11/19 16:31:54;;;;;;;;;;;12.60;99.90;;;;;;8410178;27;19977;-73
2021/11/19 16:35:56;;;;;;;;;;;12.50;99.90;;;;;;8395933;28;19927;-73
2021/11/19 16:39:58;;;;;;;;;;;12.40;99.90;;;;;;8397326;28;20355;-73
2021/11/19 16:44:00;;;;;;;;;;;12.40;99.90;;;;;;8396359;28;19920;-73
2021/11/19 16:48:05;;;;;;;;;;;12.30;99.90;;;;;;8392994;28;19920;-73
2021/11/19 16:52:08;;;;;;;;;;;12.20;99.90;;;;;;8396392;28;20041;-73
2021/11/19 16:56:10;;;;;;;;;;;12.10;99.90;;;;;;8424315;27;20319;-73
2021/11/19 17:00:15;;;;;;;;;;;12.00;99.90;;;;;;8402802;28;19920;-73
2021/11/19 17:04:17;;;;;;;;;;;11.90;99.90;;;;;;8391248;28;19932;-73
2021/11/19 17:08:24;;;;;;;;;;;11.70;99.90;;;;;;8411114;28;19942;-73
2021/11/19 17:12:26;;;;;;;;;;;11.50;99.90;;;;;;8393023;28;19921;-73
2021/11/19 17:16:27;;;;;;;;;;;11.40;99.90;;;;;;8393939;28;20159;-73
2021/11/19 17:20:29;;;;;;;;;;;11.40;99.90;;;;;;8397081;28;20284;-73
2021/11/19 17:24:31;;;;;;;;;;;11.40;99.90;;;;;;8394585;28;19976;-73
2021/11/19 17:28:36;;;;;;;;;;;11.40;99.90;;;;;;8395152;28;20375;-73
2021/11/19 17:32:38;;;;;;;;;;;11.20;99.90;;;;;;8410274;27;19924;-73
2021/11/19 17:36:40;;;;;;;;;;;11.10;99.90;;;;;;8391139;28;19931;-73
2021/11/19 17:40:42;;;;;;;;;;;11.00;99.90;;;;;;8403225;28;19946;-72
2021/11/19 17:44:44;;;;;;;;;;;10.90;99.90;;;;;;8393313;28;19974;-73
2021/11/19 17:48:47;;;;;;;;;;;10.90;99.90;;;;;;8399440;28;19959;-73
2021/11/19 17:52:49;;;;;;;;;;;10.90;99.90;;;;;;8397483;28;20325;-73
2021/11/19 17:56:55;;;;;;;;;;;10.90;99.90;;;;;;8391364;28;19920;-73
2021/11/19 18:00:59;;;;;;;;;;;10.90;99.90;;;;;;8396204;28;19924;-73
2021/11/19 18:05:01;;;;;;;;;;;10.80;99.90;;;;;;8406813;28;20003;-73
2021/11/19 18:09:05;;;;;;;;;;;10.60;99.90;;;;;;8392503;28;19920;-73
2021/11/19 18:13:06;;;;;;;;;;;10.50;99.90;;;;;;8392644;28;19920;-73
2021/11/19 18:17:10;;;;;;;;;;;10.40;99.90;;;;;;8389497;28;19935;-73
2021/11/19 18:21:20;;;;;;;;;;;10.50;99.90;;;;;;8391709;28;20006;-73
2021/11/19 18:25:28;;;;;;;;;;;10.50;99.90;;;;;;8388767;28;20457;-73
2021/11/19 18:29:32;;;;;;;;;;;10.50;99.90;;;;;;8401874;28;19951;-73
2021/11/19 18:33:33;;;;;;;;;;;10.60;99.90;;;;;;8387875;28;20349;-73
2021/11/19 18:37:35;;;;;;;;;;;10.60;99.90;;;;;;8407603;28;20325;-73
2021/11/19 18:41:39;;;;;;;;;;;10.60;99.90;;;;;;8393456;28;19931;-73
2021/11/19 18:45:41;;;;;;;;;;;10.70;99.90;;;;;;8392249;28;19924;-73
2021/11/19 18:49:45;;;;;;;;;;;10.80;99.90;;;;;;8392374;28;20284;-73
2021/11/19 18:53:46;;;;;;;;;;;10.90;99.90;;;;;;8384691;28;20061;-73
2021/11/19 18:57:48;;;;;;;;;;;11.00;99.90;;;;;;8389144;28;19928;-73
2021/11/19 19:01:51;;;;;;;;;;;11.10;99.90;;;;;;8393222;28;20054;-73
2021/11/19 19:05:53;;;;;;;;;;;11.10;99.90;;;;;;8390061;28;20046;-73
2021/11/19 19:09:54;;;;;;;;;;;11.10;99.90;;;;;;8391613;28;19974;-73
2021/11/19 19:13:56;;;;;;;;;;;11.20;99.90;;;;;;8405878;28;19927;-73
2021/11/19 19:17:58;;;;;;;;;;;11.20;99.90;;;;;;8392237;28;19931;-73
2021/11/19 19:22:00;;;;;;;;;;;11.20;99.90;;;;;;8397185;28;19989;-73
2021/11/19 19:26:03;;;;;;;;;;;11.20;99.90;;;;;;8405606;28;19920;-73
2021/11/19 19:30:11;;;;;;;;;;;11.30;99.90;;;;;;8392061;28;19939;-73
2021/11/19 19:34:16;;;;;;;;;;;11.30;99.90;;;;;;8392597;28;19928;-73
2021/11/19 19:38:24;;;;;;;;;;;11.30;99.90;;;;;;8395319;28;20387;-73
2021/11/19 19:42:26;;;;;;;;;;;11.30;99.90;;;;;;8398090;28;19928;-73
2021/11/19 19:46:30;;;;;;;;;;;11.30;99.90;;;;;;8402297;28;19920;-73
2021/11/19 19:50:39;;;;;;;;;;;11.30;99.90;;;;;;8413233;28;19924;-73
2021/11/19 19:54:42;;;;;;;;;;;11.40;99.90;;;;;;8401337;28;19932;-72
2021/11/19 19:58:44;;;;;;;;;;;11.40;99.90;;;;;;8401864;28;19920;-73
2021/11/19 20:02:46;;;;;;;;;;;11.40;99.90;;;;;;8398445;28;20371;-73
2021/11/19 20:06:48;;;;;;;;;;;11.40;99.90;;;;;;8392637;28;19920;-73
2021/11/19 20:10:52;;;;;;;;;;;11.40;99.90;;;;;;8406481;28;19928;-73
2021/11/19 20:14:54;;;;;;;;;;;11.50;99.90;;;;;;8409332;28;19928;-73
2021/11/19 20:19:05;;;;;;;;;;;11.40;99.90;;;;;;8406983;28;19924;-73
2021/11/19 20:23:08;;;;;;;;;;;11.40;99.90;;;;;;8408409;28;19924;-73
2021/11/19 20:27:10;;;;;;;;;;;11.40;99.90;;;;;;8407632;28;19928;-73
2021/11/19 20:31:24;;;;;;;;;;;11.50;99.90;;;;;;8410334;28;19924;-73
2021/11/19 20:35:26;;;;;;;;;;;11.50;99.90;;;;;;8407835;28;19935;-73
2021/11/19 20:39:30;;;;;;;;;;;11.40;99.90;;;;;;8408579;28;20271;-72
2021/11/19 20:43:32;;;;;;;;;;;11.50;99.90;;;;;;8407985;28;19941;-73
2021/11/19 20:47:34;;;;;;;;;;;11.50;99.90;;;;;;8412742;28;20551;-73
2021/11/19 20:51:35;;;;;;;;;;;11.50;99.90;;;;;;8406340;28;19921;-73
2021/11/19 20:55:39;;;;;;;;;;;11.60;99.90;;;;;;8406545;28;19951;-73
2021/11/19 20:59:41;;;;;;;;;;;11.50;99.90;;;;;;8400484;28;19947;-73
2021/11/19 21:03:44;;;;;;;;;;;11.60;99.90;;;;;;8402194;28;19920;-73
2021/11/19 21:07:46;;;;;;;;;;;11.60;99.90;;;;;;8409180;28;20228;-73
2021/11/19 21:11:54;;;;;;;;;;;11.60;99.90;;;;;;8403720;28;19920;-73
2021/11/19 21:15:56;;;;;;;;;;;11.60;99.90;;;;;;8403590;28;20419;-73
2021/11/19 21:19:58;;;;;;;;;;;11.60;99.90;;;;;;8401389;28;20402;-73
2021/11/19 21:24:00;;;;;;;;;;;11.70;99.90;;;;;;8406010;28;19927;-73
2021/11/19 21:28:03;;;;;;;;;;;11.70;99.90;;;;;;8400772;28;19920;-73
2021/11/19 21:32:06;;;;;;;;;;;11.70;99.90;;;;;;8408348;28;19920;-73
2021/11/19 21:36:09;;;;;;;;;;;11.70;99.90;;;;;;8404150;28;19958;-73
2021/11/19 21:40:12;;;;;;;;;;;11.70;99.90;;;;;;8405502;28;19928;-73
2021/11/19 21:44:16;;;;;;;;;;;11.70;99.90;;;;;;8404942;28;19924;-73
2021/11/19 21:48:18;;;;;;;;;;;11.70;99.90;;;;;;8403277;28;19920;-73
2021/11/19 21:52:24;;;;;;;;;;;11.70;99.90;;;;;;8409119;28;19931;-73
2021/11/19 21:56:45;;;;;;;;;;;11.70;99.90;;;;;;8405346;28;19928;-73
2021/11/19 22:00:48;;;;;;;;;;;11.70;99.90;;;;;;8407319;28;19946;-73
2021/11/19 22:04:51;;;;;;;;;;;11.70;99.90;;;;;;8422934;28;19938;-73
2021/11/19 22:08:53;;;;;;;;;;;11.70;99.90;;;;;;8420708;28;20317;-73
2021/11/19 22:12:56;;;;;;;;;;;11.70;99.90;;;;;;8421720;28;20676;-74
2021/11/19 22:16:58;;;;;;;;;;;11.70;99.90;;;;;;8424452;28;19924;-73
2021/11/19 22:21:02;;;;;;;;;;;11.70;99.90;;;;;;8425614;28;19920;-73
2021/11/19 22:25:04;;;;;;;;;;;11.70;99.90;;;;;;8426398;28;19927;-73
2021/11/19 22:29:07;;;;;;;;;;;11.70;99.90;;;;;;8424808;28;19927;-73
2021/11/19 22:33:09;;;;;;;;;;;11.70;99.90;;;;;;8429495;28;20347;-73
2021/11/19 22:37:23;;;;;;;;;;;11.70;99.90;;;;;;8430374;28;19924;-73
2021/11/19 22:41:26;;;;;;;;;;;11.70;99.90;;;;;;8423863;28;20023;-74
2021/11/19 22:45:29;;;;;;;;;;;11.70;99.90;;;;;;8423782;28;19927;-73
2021/11/19 22:49:31;;;;;;;;;;;11.70;99.90;;;;;;8428235;28;19954;-73
2021/11/19 22:53:33;;;;;;;;;;;11.70;99.90;;;;;;8419369;28;19920;-73
2021/11/19 22:57:35;;;;;;;;;;;11.70;99.90;;;;;;8424786;28;19919;-73
2021/11/19 23:01:36;;;;;;;;;;;11.60;99.90;;;;;;8428175;28;20274;-73
2021/11/19 23:05:38;;;;;;;;;;;11.60;99.90;;;;;;8426465;28;19950;-74
2021/11/19 23:09:44;;;;;;;;;;;11.60;99.90;;;;;;8426331;28;19924;-73
2021/11/19 23:13:47;;;;;;;;;;;11.60;99.90;;;;;;8430254;28;19920;-73
2021/11/19 23:17:51;;;;;;;;;;;11.60;99.90;;;;;;8430663;28;19920;-73
2021/11/19 23:21:54;;;;;;;;;;;11.60;99.90;;;;;;8435169;28;19927;-73
2021/11/19 23:25:58;;;;;;;;;;;11.60;99.90;;;;;;8425626;28;19927;-73
2021/11/19 23:30:02;;;;;;;;;;;11.60;99.90;;;;;;8432485;28;19974;-73
2021/11/19 23:34:09;;;;;;;;;;;11.60;99.90;;;;;;8427890;28;19942;-73
2021/11/19 23:38:11;;;;;;;;;;;11.60;99.90;;;;;;8431902;28;19923;-73
2021/11/19 23:42:15;;;;;;;;;;;11.60;99.90;;;;;;8433566;28;20320;-73
2021/11/19 23:46:20;;;;;;;;;;;11.50;99.90;;;;;;8433703;28;19920;-73